Terminal Aerodrome Forecast
Issued by NWS Detroit/Pontiac, MI

Home | Current Version | Previous Version | Text Only | Print | Product List | Glossary On
Versions: 1 2 3 4 5 6 7 8 9 10 11 12
000
FTUS43 KDTX 260500
TAFFNT
TAF
KFNT 260520Z 2606/2706 19005KT P6SM SCT090 BKN150
     FM261400 21010KT P6SM SCT060 BKN120
     FM262000 23011G19KT P6SM SCT045 BKN090
     FM270000 22006KT P6SM SCT035 BKN070=

USA.gov is the U.S. government's official web portal to all federal, state and local government web resources and services.